sensor_id;sensor_type;location;lat;lon;timestamp;pressure;altitude;pressure_sealevel;temperature;humidity
11856;BME280;5987;53.140;8.904;2023-04-24T00:00:17;99962.75;;;10.22;100.00
11856;BME280;5987;53.140;8.904;2023-04-24T00:03:22;99950.19;;;10.29;100.00
11856;BME280;5987;53.140;8.904;2023-04-24T00:06:26;99950.91;;;10.33;100.00
11856;BME280;5987;53.140;8.904;2023-04-24T00:09:35;99949.13;;;10.33;100.00
11856;BME280;5987;53.140;8.904;2023-04-24T00:12:38;99940.41;;;10.33;100.00
11856;BME280;5987;53.140;8.904;2023-04-24T00:15:42;99934.19;;;10.35;100.00
11856;BME280;5987;53.140;8.904;2023-04-24T00:18:47;99934.19;;;10.35;100.00
11856;BME280;5987;53.140;8.904;2023-04-24T00:21:51;99928.00;;;10.36;100.00
11856;BME280;5987;53.140;8.904;2023-04-24T00:24:56;99923.69;;;10.35;100.00
11856;BME280;5987;53.140;8.904;2023-04-24T00:28:00;99934.03;;;10.38;100.00
11856;BME280;5987;53.140;8.904;2023-04-24T00:31:04;99930.63;;;10.36;100.00
11856;BME280;5987;53.140;8.904;2023-04-24T00:34:09;99924.09;;;10.45;100.00
11856;BME280;5987;53.140;8.904;2023-04-24T00:37:13;99920.91;;;10.38;100.00
11856;BME280;5987;53.140;8.904;2023-04-24T00:40:17;99920.19;;;10.35;100.00
11856;BME280;5987;53.140;8.904;2023-04-24T00:43:21;99916.09;;;10.29;100.00
11856;BME280;5987;53.140;8.904;2023-04-24T00:46:24;99927.38;;;10.31;100.00
11856;BME280;5987;53.140;8.904;2023-04-24T00:49:29;99923.69;;;10.35;100.00
11856;BME280;5987;53.140;8.904;2023-04-24T00:52:33;99918.44;;;10.35;100.00
11856;BME280;5987;53.140;8.904;2023-04-24T00:55:37;99920.13;;;10.36;100.00
11856;BME280;5987;53.140;8.904;2023-04-24T00:58:41;99914.59;;;10.42;100.00
11856;BME280;5987;53.140;8.904;2023-04-24T01:01:45;99919.66;;;10.45;100.00
11856;BME280;5987;53.140;8.904;2023-04-24T01:04:51;99916.59;;;10.37;100.00
11856;BME280;5987;53.140;8.904;2023-04-24T01:07:55;99909.75;;;10.33;100.00
11856;BME280;5987;53.140;8.904;2023-04-24T01:11:03;99904.13;;;10.23;100.00
11856;BME280;5987;53.140;8.904;2023-04-24T01:14:08;99901.03;;;10.15;100.00
11856;BME280;5987;53.140;8.904;2023-04-24T01:17:12;99910.84;;;10.11;100.00
11856;BME280;5987;53.140;8.904;2023-04-24T01:20:19;99904.56;;;9.96;100.00
11856;BME280;5987;53.140;8.904;2023-04-24T01:23:24;99904.88;;;9.90;100.00
11856;BME280;5987;53.140;8.904;2023-04-24T01:26:28;99900.72;;;9.86;100.00
11856;BME280;5987;53.140;8.904;2023-04-24T01:29:32;99896.03;;;9.93;100.00
11856;BME280;5987;53.140;8.904;2023-04-24T01:32:37;99893.16;;;9.98;100.00
11856;BME280;5987;53.140;8.904;2023-04-24T01:35:41;99892.84;;;10.04;100.00
11856;BME280;5987;53.140;8.904;2023-04-24T01:38:46;99887.41;;;10.08;100.00
11856;BME280;5987;53.140;8.904;2023-04-24T01:41:50;99880.91;;;10.16;100.00
11856;BME280;5987;53.140;8.904;2023-04-24T01:44:54;99877.81;;;10.07;100.00
11856;BME280;5987;53.140;8.904;2023-04-24T01:47:58;99879.22;;;10.15;100.00
11856;BME280;5987;53.140;8.904;2023-04-24T01:51:02;99873.81;;;10.18;100.00
11856;BME280;5987;53.140;8.904;2023-04-24T01:54:07;99868.63;;;10.16;100.00
11856;BME280;5987;53.140;8.904;2023-04-24T01:57:11;99876.50;;;10.16;100.00
11856;BME280;5987;53.140;8.904;2023-04-24T02:00:15;99862.09;;;10.07;100.00
11856;BME280;5987;53.140;8.904;2023-04-24T02:03:18;99862.25;;;10.04;100.00
11856;BME280;5987;53.140;8.904;2023-04-24T02:06:22;99855.13;;;10.06;100.00
11856;BME280;5987;53.140;8.904;2023-04-24T02:09:27;99858.16;;;9.99;100.00
11856;BME280;5987;53.140;8.904;2023-04-24T02:12:30;99870.41;;;9.98;100.00
11856;BME280;5987;53.140;8.904;2023-04-24T02:15:34;99861.69;;;9.98;100.00
11856;BME280;5987;53.140;8.904;2023-04-24T02:18:38;99871.19;;;10.00;100.00
11856;BME280;5987;53.140;8.904;2023-04-24T02:21:41;99869.16;;;10.05;100.00
11856;BME280;5987;53.140;8.904;2023-04-24T02:24:47;99873.56;;;10.05;100.00
11856;BME280;5987;53.140;8.904;2023-04-24T02:27:51;99864.38;;;10.13;100.00
11856;BME280;5987;53.140;8.904;2023-04-24T02:30:54;99859.31;;;10.10;100.00
11856;BME280;5987;53.140;8.904;2023-04-24T02:33:58;99870.56;;;10.12;100.00
11856;BME280;5987;53.140;8.904;2023-04-24T02:37:02;99870.97;;;10.05;100.00
11856;BME280;5987;53.140;8.904;2023-04-24T02:40:09;99867.63;;;10.01;100.00
11856;BME280;5987;53.140;8.904;2023-04-24T02:43:12;99870.72;;;9.92;100.00
11856;BME280;5987;53.140;8.904;2023-04-24T02:46:16;99876.25;;;9.86;100.00
11856;BME280;5987;53.140;8.904;2023-04-24T02:49:20;99868.69;;;9.79;100.00
11856;BME280;5987;53.140;8.904;2023-04-24T02:52:23;99871.47;;;9.76;100.00
11856;BME280;5987;53.140;8.904;2023-04-24T02:55:28;99867.16;;;9.75;100.00
11856;BME280;5987;53.140;8.904;2023-04-24T02:58:32;99869.47;;;9.82;100.00
11856;BME280;5987;53.140;8.904;2023-04-24T03:01:36;99864.16;;;9.83;100.00
11856;BME280;5987;53.140;8.904;2023-04-24T03:04:40;99869.03;;;9.91;100.00
11856;BME280;5987;53.140;8.904;2023-04-24T03:07:45;99867.56;;;9.85;100.00
11856;BME280;5987;53.140;8.904;2023-04-24T03:10:50;99850.81;;;9.88;100.00
11856;BME280;5987;53.140;8.904;2023-04-24T03:13:53;99862.69;;;9.95;100.00
11856;BME280;5987;53.140;8.904;2023-04-24T03:16:57;99867.94;;;9.95;100.00
11856;BME280;5987;53.140;8.904;2023-04-24T03:20:01;99866.25;;;9.94;100.00
11856;BME280;5987;53.140;8.904;2023-04-24T03:23:04;99860.25;;;9.92;100.00
11856;BME280;5987;53.140;8.904;2023-04-24T03:26:09;99868.09;;;9.92;100.00
11856;BME280;5987;53.140;8.904;2023-04-24T03:29:12;99870.72;;;9.92;100.00
11856;BME280;5987;53.140;8.904;2023-04-24T03:32:16;99858.53;;;9.91;100.00
11856;BME280;5987;53.140;8.904;2023-04-24T03:35:20;99859.31;;;9.93;100.00
11856;BME280;5987;53.140;8.904;2023-04-24T03:38:24;99867.09;;;9.94;100.00
11856;BME280;5987;53.140;8.904;2023-04-24T03:41:29;99859.31;;;9.93;100.00
11856;BME280;5987;53.140;8.904;2023-04-24T03:44:33;99857.47;;;9.95;100.00
11856;BME280;5987;53.140;8.904;2023-04-24T03:47:36;99856.63;;;9.94;100.00
11856;BME280;5987;53.140;8.904;2023-04-24T03:50:40;99861.94;;;9.93;100.00
11856;BME280;5987;53.140;8.904;2023-04-24T03:53:44;99866.25;;;9.94;100.00
11856;BME280;5987;53.140;8.904;2023-04-24T03:56:48;99861.94;;;9.93;100.00
11856;BME280;5987;53.140;8.904;2023-04-24T03:59:52;99867.31;;;9.90;100.00
11856;BME280;5987;53.140;8.904;2023-04-24T04:02:56;99867.31;;;9.90;100.00
11856;BME280;5987;53.140;8.904;2023-04-24T04:06:00;99871.66;;;9.91;100.00
11856;BME280;5987;53.140;8.904;2023-04-24T04:09:03;99875.81;;;9.95;100.00
11856;BME280;5987;53.140;8.904;2023-04-24T04:12:08;99875.97;;;9.92;100.00
11856;BME280;5987;53.140;8.904;2023-04-24T04:15:12;99867.31;;;9.90;100.00
11856;BME280;5987;53.140;8.904;2023-04-24T04:18:15;99867.22;;;9.91;100.00
11856;BME280;5987;53.140;8.904;2023-04-24T04:21:19;99875.06;;;9.93;100.00
11856;BME280;5987;53.140;8.904;2023-04-24T04:24:22;99882.91;;;9.93;100.00
11856;BME280;5987;53.140;8.904;2023-04-24T04:27:27;99875.88;;;9.93;100.00
11856;BME280;5987;53.140;8.904;2023-04-24T04:30:34;99882.13;;;9.91;100.00
11856;BME280;5987;53.140;8.904;2023-04-24T04:33:40;99883.91;;;9.90;100.00
11856;BME280;5987;53.140;8.904;2023-04-24T04:36:43;99882.13;;;9.91;100.00
11856;BME280;5987;53.140;8.904;2023-04-24T04:39:48;99880.28;;;9.93;100.00
11856;BME280;5987;53.140;8.904;2023-04-24T04:42:53;99881.97;;;9.94;100.00
11856;BME280;5987;53.140;8.904;2023-04-24T04:45:58;99878.91;;;10.03;100.00
11856;BME280;5987;53.140;8.904;2023-04-24T04:49:03;99879.19;;;9.97;100.00
11856;BME280;5987;53.140;8.904;2023-04-24T04:52:06;99881.91;;;9.95;100.00
11856;BME280;5987;53.140;8.904;2023-04-24T04:55:10;99885.47;;;9.94;100.00
11856;BME280;5987;53.140;8.904;2023-04-24T04:58:16;99880.34;;;9.91;100.00
11856;BME280;5987;53.140;8.904;2023-04-24T05:01:20;99882.84;;;9.94;100.00
11856;BME280;5987;53.140;8.904;2023-04-24T05:04:25;99878.97;;;10.02;100.00
11856;BME280;5987;53.140;8.904;2023-04-24T05:07:29;99880.13;;;9.96;100.00
11856;BME280;5987;53.140;8.904;2023-04-24T05:10:32;99881.81;;;9.97;100.00
11856;BME280;5987;53.140;8.904;2023-04-24T05:13:37;99877.81;;;10.07;100.00
11856;BME280;5987;53.140;8.904;2023-04-24T05:16:42;99888.16;;;10.10;100.00
11856;BME280;5987;53.140;8.904;2023-04-24T05:19:46;99875.28;;;10.06;100.00
11856;BME280;5987;53.140;8.904;2023-04-24T05:22:50;99885.94;;;10.03;100.00
11856;BME280;5987;53.140;8.904;2023-04-24T05:25:54;99885.06;;;10.02;100.00
11856;BME280;5987;53.140;8.904;2023-04-24T05:28:59;99889.06;;;10.09;100.00
11856;BME280;5987;53.140;8.904;2023-04-24T05:32:02;99887.84;;;10.17;100.00
11856;BME280;5987;53.140;8.904;2023-04-24T05:35:07;99891.94;;;10.05;100.00
11856;BME280;5987;53.140;8.904;2023-04-24T05:38:11;99888.56;;;10.03;100.00
11856;BME280;5987;53.140;8.904;2023-04-24T05:41:14;99886.78;;;10.03;100.00
11856;BME280;5987;53.140;8.904;2023-04-24T05:44:19;99890.69;;;10.12;100.00
11856;BME280;5987;53.140;8.904;2023-04-24T05:47:23;99901.81;;;10.17;100.00
11856;BME280;5987;53.140;8.904;2023-04-24T05:50:28;99904.53;;;10.16;100.00
11856;BME280;5987;53.140;8.904;2023-04-24T05:53:32;99895.88;;;10.13;100.00
11856;BME280;5987;53.140;8.904;2023-04-24T05:56:36;99898.66;;;10.10;100.00
11856;BME280;5987;53.140;8.904;2023-04-24T05:59:42;99904.13;;;10.23;100.00
11856;BME280;5987;53.140;8.904;2023-04-24T06:02:46;99895.09;;;10.29;100.00
11856;BME280;5987;53.140;8.904;2023-04-24T06:05:50;99904.50;;;10.33;100.00
11856;BME280;5987;53.140;8.904;2023-04-24T06:08:54;99900.47;;;10.45;100.00
11856;BME280;5987;53.140;8.904;2023-04-24T06:11:59;99912.72;;;10.44;100.00
11856;BME280;5987;53.140;8.904;2023-04-24T06:15:06;99910.31;;;10.57;100.00
11856;BME280;5987;53.140;8.904;2023-04-24T06:18:10;99910.38;;;10.56;100.00
11856;BME280;5987;53.140;8.904;2023-04-24T06:21:17;99924.38;;;10.56;100.00
11856;BME280;5987;53.140;8.904;2023-04-24T06:24:20;99922.75;;;10.54;100.00
11856;BME280;5987;53.140;8.904;2023-04-24T06:27:24;99919.75;;;10.44;100.00
11856;BME280;5987;53.140;8.904;2023-04-24T06:30:29;99926.47;;;10.50;100.00
11856;BME280;5987;53.140;8.904;2023-04-24T06:33:32;99924.97;;;10.61;100.00
11856;BME280;5987;53.140;8.904;2023-04-24T06:36:36;99934.16;;;10.53;100.00
11856;BME280;5987;53.140;8.904;2023-04-24T06:39:40;99932.34;;;10.55;100.00
11856;BME280;5987;53.140;8.904;2023-04-24T06:42:44;99923.63;;;10.88;100.00
11856;BME280;5987;53.140;8.904;2023-04-24T06:45:49;99922.63;;;10.73;100.00
11856;BME280;5987;53.140;8.904;2023-04-24T06:48:53;99924.59;;;10.52;100.00
11856;BME280;5987;53.140;8.904;2023-04-24T06:51:57;99937.88;;;10.49;100.00
11856;BME280;5987;53.140;8.904;2023-04-24T06:55:02;99940.13;;;10.56;100.00
11856;BME280;5987;53.140;8.904;2023-04-24T06:58:06;99939.78;;;10.62;100.00
11856;BME280;5987;53.140;8.904;2023-04-24T07:01:11;99942.13;;;10.51;100.00
11856;BME280;5987;53.140;8.904;2023-04-24T07:04:15;99938.78;;;10.47;100.00
11856;BME280;5987;53.140;8.904;2023-04-24T07:07:19;99947.81;;;10.42;100.00
11856;BME280;5987;53.140;8.904;2023-04-24T07:10:26;99941.41;;;10.30;100.00
11856;BME280;5987;53.140;8.904;2023-04-24T07:13:30;99939.69;;;10.29;100.00
11856;BME280;5987;53.140;8.904;2023-04-24T07:16:35;99929.28;;;10.27;100.00
11856;BME280;5987;53.140;8.904;2023-04-24T07:19:39;99929.91;;;10.33;100.00
11856;BME280;5987;53.140;8.904;2023-04-24T07:22:43;99935.13;;;10.34;100.00
11856;BME280;5987;53.140;8.904;2023-04-24T07:25:47;99949.16;;;10.51;100.00
11856;BME280;5987;53.140;8.904;2023-04-24T07:28:50;99941.59;;;10.62;100.00
11856;BME280;5987;53.140;8.904;2023-04-24T07:31:55;99939.00;;;10.78;100.00
11856;BME280;5987;53.140;8.904;2023-04-24T07:34:59;99943.13;;;10.99;100.00
11856;BME280;5987;53.140;8.904;2023-04-24T07:38:05;99956.25;;;10.99;100.00
11856;BME280;5987;53.140;8.904;2023-04-24T07:41:09;99952.91;;;11.13;100.00
11856;BME280;5987;53.140;8.904;2023-04-24T07:44:13;99946.44;;;11.03;100.00
11856;BME280;5987;53.140;8.904;2023-04-24T07:47:18;99954.13;;;11.24;100.00
11856;BME280;5987;53.140;8.904;2023-04-24T07:50:22;99958.16;;;11.13;100.00
11856;BME280;5987;53.140;8.904;2023-04-24T07:53:25;99959.69;;;11.18;100.00
11856;BME280;5987;53.140;8.904;2023-04-24T07:56:29;99962.59;;;11.29;100.00
11856;BME280;5987;53.140;8.904;2023-04-24T07:59:33;99964.19;;;11.15;100.00
11856;BME280;5987;53.140;8.904;2023-04-24T08:02:38;99971.91;;;11.01;100.00
11856;BME280;5987;53.140;8.904;2023-04-24T08:05:42;99973.59;;;11.20;100.00
11856;BME280;5987;53.140;8.904;2023-04-24T08:08:46;99967.56;;;11.18;100.00
11856;BME280;5987;53.140;8.904;2023-04-24T08:11:49;99967.41;;;11.21;100.00
11856;BME280;5987;53.140;8.904;2023-04-24T08:14:53;99977.69;;;11.41;100.00
11856;BME280;5987;53.140;8.904;2023-04-24T08:17:58;99974.03;;;11.28;100.00
11856;BME280;5987;53.140;8.904;2023-04-24T08:21:03;99981.50;;;11.20;100.00
11856;BME280;5987;53.140;8.904;2023-04-24T08:24:06;99985.41;;;11.28;100.00
11856;BME280;5987;53.140;8.904;2023-04-24T08:27:10;99977.59;;;10.93;100.00
11856;BME280;5987;53.140;8.904;2023-04-24T08:30:14;99991.44;;;10.79;100.00
11856;BME280;5987;53.140;8.904;2023-04-24T08:33:19;99986.88;;;10.83;100.00
11856;BME280;5987;53.140;8.904;2023-04-24T08:36:23;99999.59;;;10.91;100.00
11856;BME280;5987;53.140;8.904;2023-04-24T08:39:44;100007.63;;;11.05;100.00
11856;BME280;5987;53.140;8.904;2023-04-24T08:42:49;99987.59;;;11.36;100.00
11856;BME280;5987;53.140;8.904;2023-04-24T08:45:57;99980.09;;;11.62;100.00
11856;BME280;5987;53.140;8.904;2023-04-24T08:49:04;99981.53;;;11.83;100.00
11856;BME280;5987;53.140;8.904;2023-04-24T08:52:08;99988.03;;;11.92;100.00
11856;BME280;5987;53.140;8.904;2023-04-24T08:55:15;99990.44;;;11.81;100.00
11856;BME280;5987;53.140;8.904;2023-04-24T08:58:20;99993.97;;;11.80;100.00
11856;BME280;5987;53.140;8.904;2023-04-24T09:01:26;99989.44;;;11.67;100.00
11856;BME280;5987;53.140;8.904;2023-04-24T09:04:35;99985.84;;;11.53;100.00
11856;BME280;5987;53.140;8.904;2023-04-24T09:07:43;99994.91;;;11.63;100.00
11856;BME280;5987;53.140;8.904;2023-04-24T09:10:48;100002.97;;;11.44;100.00
11856;BME280;5987;53.140;8.904;2023-04-24T09:13:53;99994.38;;;11.24;100.00
11856;BME280;5987;53.140;8.904;2023-04-24T09:16:57;99997.19;;;11.37;100.00
11856;BME280;5987;53.140;8.904;2023-04-24T09:20:04;99986.50;;;11.40;100.00
11856;BME280;5987;53.140;8.904;2023-04-24T09:23:08;99997.22;;;11.69;100.00
11856;BME280;5987;53.140;8.904;2023-04-24T09:26:18;99996.19;;;11.88;100.00
11856;BME280;5987;53.140;8.904;2023-04-24T09:29:22;99993.72;;;11.53;100.00
11856;BME280;5987;53.140;8.904;2023-04-24T09:32:26;100001.56;;;11.21;100.00
11856;BME280;5987;53.140;8.904;2023-04-24T09:35:32;99998.41;;;11.63;100.00
11856;BME280;5987;53.140;8.904;2023-04-24T09:38:38;99994.06;;;12.26;100.00
11856;BME280;5987;53.140;8.904;2023-04-24T09:41:46;99988.56;;;12.15;100.00
11856;BME280;5987;53.140;8.904;2023-04-24T09:44:50;99993.47;;;11.89;100.00
11856;BME280;5987;53.140;8.904;2023-04-24T09:48:09;99996.72;;;11.62;100.00
11856;BME280;5987;53.140;8.904;2023-04-24T09:51:14;100006.53;;;11.59;100.00
11856;BME280;5987;53.140;8.904;2023-04-24T09:54:19;100004.19;;;11.70;100.00
11856;BME280;5987;53.140;8.904;2023-04-24T09:57:23;99991.81;;;11.23;100.00
11856;BME280;5987;53.140;8.904;2023-04-24T10:00:30;100008.06;;;11.13;100.00
11856;BME280;5987;53.140;8.904;2023-04-24T10:03:34;100004.09;;;11.22;100.00
11856;BME280;5987;53.140;8.904;2023-04-24T10:06:42;100009.44;;;11.21;100.00
11856;BME280;5987;53.140;8.904;2023-04-24T10:09:47;100009.16;;;11.09;100.00
11856;BME280;5987;53.140;8.904;2023-04-24T10:12:51;100017.06;;;10.92;100.00
11856;BME280;5987;53.140;8.904;2023-04-24T10:16:05;100011.56;;;11.14;100.00
11856;BME280;5987;53.140;8.904;2023-04-24T10:19:10;100017.63;;;10.98;100.00
11856;BME280;5987;53.140;8.904;2023-04-24T10:22:18;100019.06;;;11.04;100.00
11856;BME280;5987;53.140;8.904;2023-04-24T10:25:25;100020.94;;;10.85;100.00
11856;BME280;5987;53.140;8.904;2023-04-24T10:28:31;100024.78;;;10.95;100.00
11856;BME280;5987;53.140;8.904;2023-04-24T10:31:37;100020.47;;;10.76;100.00
11856;BME280;5987;53.140;8.904;2023-04-24T10:34:42;100025.09;;;10.71;100.00
11856;BME280;5987;53.140;8.904;2023-04-24T10:37:53;100022.28;;;10.76;100.00
11856;BME280;5987;53.140;8.904;2023-04-24T10:41:07;100020.78;;;10.88;100.00
11856;BME280;5987;53.140;8.904;2023-04-24T10:44:14;100033.28;;;10.82;100.00
11856;BME280;5987;53.140;8.904;2023-04-24T10:47:18;100031.38;;;10.51;100.00
11856;BME280;5987;53.140;8.904;2023-04-24T10:50:22;100023.41;;;10.53;100.00
11856;BME280;5987;53.140;8.904;2023-04-24T10:53:30;100025.28;;;10.68;100.00
11856;BME280;5987;53.140;8.904;2023-04-24T10:56:33;100033.22;;;10.67;100.00
11856;BME280;5987;53.140;8.904;2023-04-24T10:59:37;100032.34;;;11.01;100.00
11856;BME280;5987;53.140;8.904;2023-04-24T11:02:41;100040.97;;;10.87;100.00
11856;BME280;5987;53.140;8.904;2023-04-24T11:05:55;100042.84;;;11.19;100.00
11856;BME280;5987;53.140;8.904;2023-04-24T11:09:04;100035.28;;;10.95;100.00
11856;BME280;5987;53.140;8.904;2023-04-24T11:12:11;100043.94;;;11.14;100.00
11856;BME280;5987;53.140;8.904;2023-04-24T11:15:17;100036.91;;;10.97;100.00
11856;BME280;5987;53.140;8.904;2023-04-24T11:18:23;100034.06;;;11.02;100.00
11856;BME280;5987;53.140;8.904;2023-04-24T11:21:32;100043.13;;;10.79;100.00
11856;BME280;5987;53.140;8.904;2023-04-24T11:24:48;100035.91;;;11.00;100.00
11856;BME280;5987;53.140;8.904;2023-04-24T11:28:04;100037.28;;;11.07;100.00
11856;BME280;5987;53.140;8.904;2023-04-24T11:31:37;100038.16;;;10.73;100.00
11856;BME280;5987;53.140;8.904;2023-04-24T11:34:41;100043.50;;;10.89;100.00
11856;BME280;5987;53.140;8.904;2023-04-24T11:37:51;100032.78;;;10.76;100.00
11856;BME280;5987;53.140;8.904;2023-04-24T11:41:16;100029.13;;;10.61;100.00
11856;BME280;5987;53.140;8.904;2023-04-24T11:44:22;100039.16;;;10.53;100.00
11856;BME280;5987;53.140;8.904;2023-04-24T11:47:29;100040.63;;;10.41;100.00
11856;BME280;5987;53.140;8.904;2023-04-24T11:50:35;100050.81;;;10.28;100.00
11856;BME280;5987;53.140;8.904;2023-04-24T11:53:38;100053.91;;;10.19;100.00
11856;BME280;5987;53.140;8.904;2023-04-24T11:56:46;100057.59;;;10.15;100.00
11856;BME280;5987;53.140;8.904;2023-04-24T11:59:50;100069.28;;;10.07;100.00
11856;BME280;5987;53.140;8.904;2023-04-24T12:03:06;100073.53;;;9.91;100.00
11856;BME280;5987;53.140;8.904;2023-04-24T12:06:11;100071.84;;;9.90;100.00
11856;BME280;5987;53.140;8.904;2023-04-24T12:09:16;100061.34;;;9.90;100.00
11856;BME280;5987;53.140;8.904;2023-04-24T12:12:24;100072.84;;;9.87;100.00
11856;BME280;5987;53.140;8.904;2023-04-24T12:15:29;100083.97;;;9.73;100.00
11856;BME280;5987;53.140;8.904;2023-04-24T12:18:33;100084.22;;;9.67;100.00
11856;BME280;5987;53.140;8.904;2023-04-24T12:21:36;100096.97;;;9.56;100.00
11856;BME280;5987;53.140;8.904;2023-04-24T12:24:56;100099.59;;;9.56;100.00
11856;BME280;5987;53.140;8.904;2023-04-24T12:28:12;100105.06;;;9.31;100.00
11856;BME280;5987;53.140;8.904;2023-04-24T12:31:16;100109.19;;;9.36;100.00
11856;BME280;5987;53.140;8.904;2023-04-24T12:34:22;100110.16;;;9.34;100.00
11856;BME280;5987;53.140;8.904;2023-04-24T12:37:31;100108.13;;;9.40;100.00
11856;BME280;5987;53.140;8.904;2023-04-24T12:40:35;100108.78;;;9.25;100.00
11856;BME280;5987;53.140;8.904;2023-04-24T12:43:52;100110.03;;;9.16;100.00
11856;BME280;5987;53.140;8.904;2023-04-24T12:46:56;100118.03;;;9.13;100.00
11856;BME280;5987;53.140;8.904;2023-04-24T12:50:00;100115.41;;;9.13;100.00
11856;BME280;5987;53.140;8.904;2023-04-24T12:53:04;100129.63;;;9.07;100.00
11856;BME280;5987;53.140;8.904;2023-04-24T12:56:08;100131.25;;;9.10;100.00
11856;BME280;5987;53.140;8.904;2023-04-24T12:59:14;100132.78;;;9.16;100.00
11856;BME280;5987;53.140;8.904;2023-04-24T13:02:17;100146.09;;;9.09;100.00
11856;BME280;5987;53.140;8.904;2023-04-24T13:05:21;100142.84;;;9.25;100.00
11856;BME280;5987;53.140;8.904;2023-04-24T13:08:26;100144.94;;;9.17;100.00
11856;BME280;5987;53.140;8.904;2023-04-24T13:11:30;100146.25;;;9.27;100.00
11856;BME280;5987;53.140;8.904;2023-04-24T13:14:36;100153.06;;;9.10;100.00
11856;BME280;5987;53.140;8.904;2023-04-24T13:17:40;100164.63;;;9.05;100.00
11856;BME280;5987;53.140;8.904;2023-04-24T13:20:44;100177.06;;;9.00;100.00
11856;BME280;5987;53.140;8.904;2023-04-24T13:23:49;100177.94;;;8.56;100.00
11856;BME280;5987;53.140;8.904;2023-04-24T13:26:54;100186.84;;;8.27;100.00
11856;BME280;5987;53.140;8.904;2023-04-24T13:30:00;100205.47;;;8.19;100.00
11856;BME280;5987;53.140;8.904;2023-04-24T13:33:03;100217.84;;;8.14;100.00
11856;BME280;5987;53.140;8.904;2023-04-24T13:36:08;100218.28;;;8.01;100.00
11856;BME280;5987;53.140;8.904;2023-04-24T13:39:11;100231.97;;;7.84;100.00
11856;BME280;5987;53.140;8.904;2023-04-24T13:42:15;100252.81;;;7.86;100.00
11856;BME280;5987;53.140;8.904;2023-04-24T13:45:29;100251.59;;;7.96;100.00
11856;BME280;5987;53.140;8.904;2023-04-24T13:48:32;100258.00;;;7.87;100.00
11856;BME280;5987;53.140;8.904;2023-04-24T13:51:36;100260.78;;;7.83;100.00
11856;BME280;5987;53.140;8.904;2023-04-24T13:54:40;100266.34;;;7.73;100.00
11856;BME280;5987;53.140;8.904;2023-04-24T13:57:43;100291.75;;;7.68;100.00
11856;BME280;5987;53.140;8.904;2023-04-24T14:00:48;100283.91;;;7.68;100.00
11856;BME280;5987;53.140;8.904;2023-04-24T14:03:52;100298.59;;;7.72;100.00
11856;BME280;5987;53.140;8.904;2023-04-24T14:06:56;100305.66;;;7.69;100.00
11856;BME280;5987;53.140;8.904;2023-04-24T14:10:00;100318.03;;;7.64;100.00
11856;BME280;5987;53.140;8.904;2023-04-24T14:13:03;100323.56;;;7.54;100.00
11856;BME280;5987;53.140;8.904;2023-04-24T14:16:09;100321.78;;;7.55;100.00
11856;BME280;5987;53.140;8.904;2023-04-24T14:19:13;100324.63;;;7.49;100.00
11856;BME280;5987;53.140;8.904;2023-04-24T14:22:16;100334.72;;;7.33;100.00
11856;BME280;5987;53.140;8.904;2023-04-24T14:25:20;100333.72;;;7.37;100.00
11856;BME280;5987;53.140;8.904;2023-04-24T14:28:25;100343.78;;;7.48;100.00
11856;BME280;5987;53.140;8.904;2023-04-24T14:31:30;100347.19;;;7.51;100.00
11856;BME280;5987;53.140;8.904;2023-04-24T14:34:34;100349.41;;;7.35;100.00
11856;BME280;5987;53.140;8.904;2023-04-24T14:37:38;100358.44;;;7.25;100.00
11856;BME280;5987;53.140;8.904;2023-04-24T14:40:43;100357.63;;;7.23;100.00
11856;BME280;5987;53.140;8.904;2023-04-24T14:44:07;100360.88;;;7.30;100.00
11856;BME280;5987;53.140;8.904;2023-04-24T14:47:12;100368.97;;;7.22;100.00
11856;BME280;5987;53.140;8.904;2023-04-24T14:50:15;100370.59;;;7.26;100.00
11856;BME280;5987;53.140;8.904;2023-04-24T14:53:20;100375.91;;;7.23;100.00
11856;BME280;5987;53.140;8.904;2023-04-24T14:56:24;100383.81;;;7.20;100.00
11856;BME280;5987;53.140;8.904;2023-04-24T14:59:28;100388.16;;;7.21;100.00
11856;BME280;5987;53.140;8.904;2023-04-24T15:02:34;100391.69;;;7.18;100.00
11856;BME280;5987;53.140;8.904;2023-04-24T15:05:40;100394.00;;;7.29;100.00
11856;BME280;5987;53.140;8.904;2023-04-24T15:08:43;100392.63;;;7.17;100.00
11856;BME280;5987;53.140;8.904;2023-04-24T15:11:50;100388.91;;;7.25;100.00
11856;BME280;5987;53.140;8.904;2023-04-24T15:14:54;100403.44;;;7.33;100.00
11856;BME280;5987;53.140;8.904;2023-04-24T15:17:59;100399.94;;;7.34;100.00
11856;BME280;5987;53.140;8.904;2023-04-24T15:21:03;100404.22;;;7.37;100.00
11856;BME280;5987;53.140;8.904;2023-04-24T15:24:07;100412.31;;;7.28;100.00
11856;BME280;5987;53.140;8.904;2023-04-24T15:27:11;100413.78;;;7.36;100.00
11856;BME280;5987;53.140;8.904;2023-04-24T15:30:15;100418.03;;;7.41;100.00
11856;BME280;5987;53.140;8.904;2023-04-24T15:33:20;100416.34;;;7.66;100.00
11856;BME280;5987;53.140;8.904;2023-04-24T15:36:24;100405.53;;;7.79;100.00
11856;BME280;5987;53.140;8.904;2023-04-24T15:39:27;100419.22;;;7.59;100.00
11856;BME280;5987;53.140;8.904;2023-04-24T15:42:31;100421.47;;;7.71;100.00
11856;BME280;5987;53.140;8.904;2023-04-24T15:45:34;100419.75;;;7.70;100.00
11856;BME280;5987;53.140;8.904;2023-04-24T15:48:41;100421.09;;;7.82;100.00
11856;BME280;5987;53.140;8.904;2023-04-24T15:51:45;100425.88;;;7.69;100.00
11856;BME280;5987;53.140;8.904;2023-04-24T15:54:48;100431.88;;;7.72;100.00
11856;BME280;5987;53.140;8.904;2023-04-24T15:57:52;100424.06;;;7.71;100.00
11856;BME280;5987;53.140;8.904;2023-04-24T16:00:56;100433.38;;;7.80;100.00
11856;BME280;5987;53.140;8.904;2023-04-24T16:04:01;100426.38;;;7.80;100.00
11856;BME280;5987;53.140;8.904;2023-04-24T16:07:05;100426.31;;;7.82;100.00
11856;BME280;5987;53.140;8.904;2023-04-24T16:10:11;100432.03;;;7.66;100.00
11856;BME280;5987;53.140;8.904;2023-04-24T16:13:15;100436.19;;;7.73;100.00
11856;BME280;5987;53.140;8.904;2023-04-24T16:16:19;100434.41;;;7.74;100.00
11856;BME280;5987;53.140;8.904;2023-04-24T16:19:27;100439.94;;;7.65;100.00